Time;durP1;ratioP1;P1;durP2;ratioP2;P2;SDS_P1;SDS_P2;PMS_P1;PMS_P2;Temp;Humidity;BMP_temperature;BMP_pressure;BME280_temperature;BME280_humidity;BME280_pressure;Samples;Min_cycle;Max_cycle;Signal;HPM_P1;HPM_P2
2023/05/29 00:02:12;;;;;;;8.90;5.90;;;;;;;15.03;45.53;100811.92;106160;1262;60386;-64
2023/05/29 00:04:40;;;;;;;8.80;6.30;;;;;;;15.04;45.37;100813.12;106136;1256;63695;-64
2023/05/29 00:07:08;;;;;;;11.00;6.50;;;;;;;15.03;45.89;100814.99;106190;1260;60541;-63
2023/05/29 00:09:36;;;;;;;10.90;7.20;;;;;;;15.00;46.07;100814.78;106198;1257;62470;-64
2023/05/29 00:12:03;;;;;;;12.00;6.80;;;;;;;14.97;47.02;100818.23;106220;1257;60504;-65
2023/05/29 00:14:31;;;;;;;12.40;6.30;;;;;;;14.93;48.03;100819.58;106086;1255;62073;-64
2023/05/29 00:16:58;;;;;;;12.30;6.30;;;;;;;14.91;48.72;100816.68;106309;1257;63738;-66
2023/05/29 00:19:27;;;;;;;10.30;6.10;;;;;;;14.87;49.26;100819.80;106035;1262;61847;-65
2023/05/29 00:21:54;;;;;;;10.50;5.80;;;;;;;14.82;49.69;100821.27;106337;1256;63746;-66
2023/05/29 00:24:22;;;;;;;16.90;6.30;;;;;;;14.78;50.46;100817.60;106271;1257;60472;-68
2023/05/29 00:26:49;;;;;;;9.70;6.00;;;;;;;14.74;51.07;100817.92;106124;1254;60323;-66
2023/05/29 00:29:17;;;;;;;9.60;5.40;;;;;;;14.71;51.59;100813.52;106030;1264;65945;-66
2023/05/29 00:31:46;;;;;;;10.00;6.10;;;;;;;14.67;51.98;100814.35;106006;1263;61486;-62
2023/05/29 00:34:13;;;;;;;10.70;5.80;;;;;;;14.64;52.27;100812.85;106235;1256;63713;-70
2023/05/29 00:36:41;;;;;;;11.60;6.10;;;;;;;14.66;52.18;100807.33;106307;1256;60331;-67
2023/05/29 00:39:09;;;;;;;11.90;6.70;;;;;;;14.60;52.42;100804.22;106174;1260;60648;-66
2023/05/29 00:41:36;;;;;;;10.80;6.40;;;;;;;14.61;52.75;100803.46;108664;1254;64974;-65
2023/05/29 00:44:04;;;;;;;11.30;6.10;;;;;;;14.59;52.80;100802.52;106131;1257;61518;-64
2023/05/29 00:46:32;;;;;;;8.70;6.20;;;;;;;14.57;52.97;100800.39;106230;1260;63974;-64
2023/05/29 00:49:00;;;;;;;11.30;6.30;;;;;;;14.55;53.25;100801.98;106105;1256;60641;-64
2023/05/29 00:51:28;;;;;;;10.80;6.40;;;;;;;14.57;53.31;100803.06;106171;1261;60486;-64
2023/05/29 00:53:56;;;;;;;10.70;7.00;;;;;;;14.54;53.37;100801.90;106122;1258;64979;-66
2023/05/29 00:56:23;;;;;;;11.50;6.90;;;;;;;14.51;53.18;100808.33;106096;1257;72574;-66
2023/05/29 00:58:51;;;;;;;12.70;7.00;;;;;;;14.52;52.73;100811.40;106097;1257;62448;-66
2023/05/29 01:01:19;;;;;;;11.60;6.90;;;;;;;14.54;52.25;100812.54;106043;1257;60556;-66
2023/05/29 01:03:48;;;;;;;13.00;7.10;;;;;;;14.52;52.39;100816.38;106193;1258;60478;-69
2023/05/29 01:06:16;;;;;;;11.60;7.10;;;;;;;14.51;52.50;100816.13;106005;1257;66134;-65
2023/05/29 01:08:44;;;;;;;10.90;6.20;;;;;;;14.49;52.57;100819.66;106209;1258;61485;-66
2023/05/29 01:11:38;;;;;;;9.50;6.90;;;;;;;14.46;52.64;100820.42;106032;1257;63749;-68
2023/05/29 01:14:09;;;;;;;9.70;5.80;;;;;;;14.44;53.04;100819.94;105963;1257;60560;-66
2023/05/29 01:16:50;;;;;;;10.90;6.50;;;;;;;14.41;53.44;100820.05;106130;1260;60372;-64
2023/05/29 01:19:24;;;;;;;9.10;6.00;;;;;;;14.37;53.66;100814.90;106224;1254;63700;-65
2023/05/29 01:22:00;;;;;;;11.40;6.20;;;;;;;14.32;53.70;100817.44;106117;1254;61323;-65
2023/05/29 01:24:34;;;;;;;10.00;6.30;;;;;;;14.26;53.79;100820.13;106111;1263;62482;-65
2023/05/29 01:27:06;;;;;;;10.00;6.20;;;;;;;14.14;54.02;100822.58;106151;1260;60374;-65
2023/05/29 01:29:34;;;;;;;10.70;6.10;;;;;;;14.06;54.22;100819.05;107017;1263;60361;-66
2023/05/29 01:32:01;;;;;;;10.90;6.50;;;;;;;14.02;54.45;100824.73;106196;1256;63664;-64
2023/05/29 01:34:29;;;;;;;10.20;6.70;;;;;;;13.98;54.49;100827.33;106311;1257;60370;-65
2023/05/29 01:36:57;;;;;;;16.10;6.30;;;;;;;13.92;54.12;100826.83;106142;1257;63954;-66
2023/05/29 01:39:25;;;;;;;9.90;6.40;;;;;;;13.82;54.15;100832.92;106249;1262;60552;-66
2023/05/29 01:41:52;;;;;;;8.40;5.90;;;;;;;13.75;54.47;100831.08;106190;1257;60315;-65
2023/05/29 01:44:20;;;;;;;9.80;6.60;;;;;;;13.72;54.60;100836.63;106032;1257;63847;-66
2023/05/29 01:46:47;;;;;;;11.00;6.10;;;;;;;13.73;54.71;100835.44;106080;1261;60574;-66
2023/05/29 01:49:15;;;;;;;10.00;6.20;;;;;;;13.74;55.00;100834.73;106103;1257;62500;-65
2023/05/29 01:51:42;;;;;;;18.20;6.00;;;;;;;13.77;55.04;100838.11;106105;1257;60530;-66
2023/05/29 01:54:10;;;;;;;10.70;6.60;;;;;;;13.76;54.94;100833.11;105943;1257;60572;-64
2023/05/29 01:56:38;;;;;;;10.30;6.40;;;;;;;13.73;54.71;100835.64;106168;1254;65270;-66
2023/05/29 01:59:05;;;;;;;10.30;5.70;;;;;;;13.69;54.32;100833.39;106178;1257;64300;-65
2023/05/29 02:01:33;;;;;;;10.20;6.60;;;;;;;13.64;54.46;100840.85;105936;1257;63547;-65
2023/05/29 02:04:01;;;;;;;10.10;5.80;;;;;;;13.63;54.71;100840.42;106288;1259;59167;-66
2023/05/29 02:06:28;;;;;;;10.30;6.30;;;;;;;13.63;55.02;100845.19;106195;1257;60454;-66
2023/05/29 02:08:56;;;;;;;8.90;6.30;;;;;;;13.63;55.26;100846.05;106181;1262;64946;-63
2023/05/29 02:11:25;;;;;;;10.30;6.30;;;;;;;13.62;55.36;100846.50;106182;1257;60440;-63
2023/05/29 02:13:54;;;;;;;10.80;6.50;;;;;;;13.62;55.46;100848.27;106155;1262;63744;-62
2023/05/29 02:16:21;;;;;;;13.10;6.20;;;;;;;13.62;55.56;100850.23;106252;1257;60857;-62
2023/05/29 02:18:49;;;;;;;11.60;6.50;;;;;;;13.61;55.56;100852.01;106043;1262;59232;-62
2023/05/29 02:21:17;;;;;;;10.80;6.10;;;;;;;13.60;55.72;100856.16;106120;1256;65850;-62
2023/05/29 02:23:45;;;;;;;10.90;6.00;;;;;;;13.62;55.69;100858.63;106103;1262;60363;-62
2023/05/29 02:26:14;;;;;;;11.40;5.70;;;;;;;13.67;55.42;100857.48;106184;1273;62595;-62
2023/05/29 02:28:42;;;;;;;12.10;5.80;;;;;;;13.70;55.28;100856.19;106423;1256;60400;-62
2023/05/29 02:31:10;;;;;;;11.30;6.60;;;;;;;13.69;54.87;100852.35;106188;1257;60436;-62
2023/05/29 02:33:37;;;;;;;10.90;6.40;;;;;;;13.72;54.75;100855.83;106180;1257;65915;-62
2023/05/29 02:36:09;;;;;;;10.20;5.90;;;;;;;13.73;54.62;100850.95;106191;1256;61424;-61
2023/05/29 02:38:37;;;;;;;10.40;5.80;;;;;;;13.74;54.38;100850.56;106192;1257;62654;-61
2023/05/29 02:41:06;;;;;;;12.50;6.30;;;;;;;13.74;54.33;100844.94;106191;1257;60452;-62
2023/05/29 02:43:33;;;;;;;10.40;6.10;;;;;;;13.73;54.29;100845.02;106222;1257;60262;-62
2023/05/29 02:46:01;;;;;;;8.90;5.70;;;;;;;13.72;54.18;100846.13;106121;1257;63680;-61
2023/05/29 02:48:29;;;;;;;10.50;5.90;;;;;;;13.71;54.04;100844.81;106162;1257;61883;-62
2023/05/29 02:50:57;;;;;;;9.90;6.30;;;;;;;13.74;54.13;100845.45;106271;1258;63647;-62
2023/05/29 02:53:25;;;;;;;9.50;5.70;;;;;;;13.78;54.19;100843.38;106157;1256;60442;-61
2023/05/29 02:55:53;;;;;;;9.90;5.80;;;;;;;13.79;53.81;100837.79;106218;1260;60508;-61
2023/05/29 02:58:21;;;;;;;9.00;5.10;;;;;;;13.82;53.76;100833.30;106193;1255;64933;-61
2023/05/29 03:00:50;;;;;;;9.90;5.20;;;;;;;13.86;53.89;100830.67;106279;1255;61376;-63
2023/05/29 03:03:17;;;;;;;10.70;6.00;;;;;;;13.92;53.84;100834.04;106324;1257;64197;-65
2023/05/29 03:05:46;;;;;;;10.30;4.90;;;;;;;13.97;53.12;100831.81;106107;1256;60498;-65
2023/05/29 03:08:14;;;;;;;11.00;5.40;;;;;;;14.02;52.76;100829.96;106149;1262;60564;-63
2023/05/29 03:10:43;;;;;;;8.80;5.60;;;;;;;14.08;53.02;100834.96;106377;1256;64883;-63
2023/05/29 03:13:11;;;;;;;9.20;4.90;;;;;;;14.12;53.26;100835.42;106401;1257;61293;-63
2023/05/29 03:15:42;;;;;;;8.30;4.80;;;;;;;14.16;53.24;100834.37;106196;1257;64196;-63
2023/05/29 03:18:10;;;;;;;9.40;5.40;;;;;;;14.21;52.98;100837.17;106321;1257;60562;-64
2023/05/29 03:20:37;;;;;;;9.50;5.20;;;;;;;14.25;52.67;100842.06;106367;1257;60370;-65
2023/05/29 03:23:05;;;;;;;11.30;6.50;;;;;;;14.29;52.45;100843.59;106213;1261;64876;-64
2023/05/29 03:25:33;;;;;;;10.40;6.10;;;;;;;14.33;52.79;100842.77;106411;1256;61931;-63
2023/05/29 03:28:00;;;;;;;13.10;5.50;;;;;;;14.35;53.11;100844.34;106301;1257;64408;-63
2023/05/29 03:30:28;;;;;;;12.20;4.80;;;;;;;14.43;53.01;100845.61;108597;1257;59115;-63
2023/05/29 03:32:56;;;;;;;7.80;4.70;;;;;;;14.56;52.15;100840.40;108759;1254;58556;-63
2023/05/29 03:35:33;;;;;;;10.40;4.50;;;;;;;14.69;51.10;100843.83;108697;1254;64913;-65
2023/05/29 03:38:01;;;;;;;6.70;4.00;;;;;;;14.81;49.68;100848.41;108793;1256;61858;-63
2023/05/29 03:40:29;;;;;;;7.40;4.10;;;;;;;14.92;49.09;100852.77;107600;1258;62489;-63
2023/05/29 03:42:57;;;;;;;9.20;4.80;;;;;;;15.00;48.69;100849.91;106282;1257;60452;-64
2023/05/29 03:45:25;;;;;;;9.80;4.40;;;;;;;15.04;47.70;100849.13;106257;1257;59813;-64
2023/05/29 03:47:53;;;;;;;6.40;4.10;;;;;;;15.14;47.03;100851.98;106022;1265;64864;-61
2023/05/29 03:50:20;;;;;;;7.30;4.10;;;;;;;15.14;46.58;100854.84;106436;1260;60368;-62
2023/05/29 03:52:48;;;;;;;7.40;3.70;;;;;;;15.13;46.53;100856.13;106538;1257;63753;-62
2023/05/29 03:55:15;;;;;;;6.60;3.70;;;;;;;15.13;46.43;100858.39;106542;1257;60477;-63
2023/05/29 03:57:43;;;;;;;7.00;4.00;;;;;;;15.14;46.31;100859.06;106518;1257;60451;-61
2023/05/29 04:00:12;;;;;;;8.70;3.90;;;;;;;15.16;46.12;100854.65;106602;1257;65028;-65
2023/05/29 04:02:39;;;;;;;8.00;3.80;;;;;;;15.17;45.80;100855.01;106622;1259;60918;-63
2023/05/29 04:05:08;;;;;;;9.40;3.80;;;;;;;15.19;45.84;100855.04;106483;1260;63747;-62
2023/05/29 04:07:39;;;;;;;9.40;4.50;;;;;;;15.21;46.05;100854.68;106377;1260;60429;-62
2023/05/29 04:10:08;;;;;;;6.80;3.80;;;;;;;15.25;45.98;100859.05;106331;1257;59553;-61
2023/05/29 04:12:35;;;;;;;9.60;4.30;;;;;;;15.28;45.89;100865.14;106176;1257;64889;-62
2023/05/29 04:15:04;;;;;;;9.00;3.70;;;;;;;15.29;45.93;100867.36;106110;1257;61334;-61
2023/05/29 04:17:32;;;;;;;8.00;3.70;;;;;;;15.31;45.97;100869.70;107147;1255;62809;-63
2023/05/29 04:20:05;;;;;;;8.10;3.30;;;;;;;15.33;45.53;100873.38;106198;1257;60504;-62
2023/05/29 04:22:33;;;;;;;8.70;3.70;;;;;;;15.34;45.36;100877.27;106266;1262;60367;-62
2023/05/29 04:25:03;;;;;;;10.60;3.80;;;;;;;15.37;45.22;100874.41;106280;1260;63652;-60
2023/05/29 04:27:32;;;;;;;6.10;3.50;;;;;;;15.40;44.94;100870.39;106339;1257;61494;-65
2023/05/29 04:29:59;;;;;;;6.30;3.30;;;;;;;15.43;45.03;100874.56;106028;1255;63770;-61
2023/05/29 04:32:29;;;;;;;8.40;3.70;;;;;;;15.46;45.08;100870.42;106352;1262;61660;-64
2023/05/29 04:34:56;;;;;;;7.80;3.80;;;;;;;15.49;45.49;100869.97;106265;1256;60398;-64
2023/05/29 04:37:28;;;;;;;7.00;3.10;;;;;;;15.53;45.54;100868.73;106241;1261;64861;-62
2023/05/29 04:39:57;;;;;;;8.00;3.40;;;;;;;15.57;45.15;100869.59;106254;1261;61507;-61
2023/05/29 04:42:26;;;;;;;8.40;3.20;;;;;;;15.60;44.95;100872.96;107325;1261;62498;-64
2023/05/29 04:44:54;;;;;;;6.00;3.00;;;;;;;15.66;44.95;100870.34;106436;1257;60437;-65
2023/05/29 04:47:22;;;;;;;7.00;3.10;;;;;;;15.73;44.81;100872.71;108815;1256;58568;-62
2023/05/29 04:49:50;;;;;;;7.40;3.30;;;;;;;15.80;44.71;100877.02;106252;1257;64952;-63
2023/05/29 04:52:17;;;;;;;8.50;3.60;;;;;;;15.86;44.37;100878.59;106267;1257;61311;-62
2023/05/29 04:54:45;;;;;;;8.00;3.40;;;;;;;15.91;44.38;100878.92;106148;1257;63774;-62
2023/05/29 04:57:13;;;;;;;8.10;3.40;;;;;;;15.98;44.61;100876.86;106102;1257;60521;-61
2023/05/29 04:59:41;;;;;;;7.20;3.10;;;;;;;16.11;44.26;100874.09;106041;1257;60501;-62
2023/05/29 05:02:08;;;;;;;7.10;3.10;;;;;;;16.18;44.35;100871.43;106152;1255;76285;-61
2023/05/29 05:04:36;;;;;;;6.70;3.00;;;;;;;16.25;44.75;100873.64;108692;1260;60087;-61
2023/05/29 05:07:05;;;;;;;5.60;3.00;;;;;;;16.32;44.67;100873.14;108885;1257;62533;-63
2023/05/29 05:09:32;;;;;;;7.60;3.00;;;;;;;16.40;44.17;100869.19;108729;1257;58288;-61
2023/05/29 05:12:02;;;;;;;6.80;3.40;;;;;;;16.47;43.88;100865.42;108792;1254;58288;-62
2023/05/29 05:14:29;;;;;;;8.40;3.00;;;;;;;16.56;43.92;100863.39;108763;1256;63746;-62
2023/05/29 05:16:57;;;;;;;7.20;2.90;;;;;;;16.65;43.88;100863.18;108750;1254;61649;-65
2023/05/29 05:19:25;;;;;;;5.00;2.60;;;;;;;16.76;43.33;100863.49;108740;1257;62411;-62
2023/05/29 05:21:53;;;;;;;9.20;2.30;;;;;;;16.87;43.14;100865.62;108728;1256;58279;-62
2023/05/29 05:24:22;;;;;;;5.10;2.40;;;;;;;16.98;41.69;100866.01;107330;1258;60552;-61
2023/05/29 05:26:49;;;;;;;7.30;2.40;;;;;;;17.05;41.28;100864.06;106348;1254;64924;-62
2023/05/29 05:29:17;;;;;;;4.70;2.30;;;;;;;17.13;41.72;100867.70;106617;1254;61449;-64
2023/05/29 05:31:44;;;;;;;9.30;2.40;;;;;;;17.21;41.93;100870.03;106419;1252;64055;-61
2023/05/29 05:34:12;;;;;;;7.10;2.90;;;;;;;17.30;42.09;100871.83;106532;1252;60760;-64
2023/05/29 05:36:40;;;;;;;5.20;2.20;;;;;;;17.38;41.75;100873.17;106541;1257;60368;-62
2023/05/29 05:39:11;;;;;;;8.10;2.30;;;;;;;17.46;41.44;100876.42;106418;1251;64938;-62
2023/05/29 05:41:38;;;;;;;4.90;2.20;;;;;;;17.53;41.19;100880.10;106505;1257;60536;-62
2023/05/29 05:44:06;;;;;;;5.90;2.30;;;;;;;17.61;40.98;100877.20;106311;1251;63395;-62
2023/05/29 05:46:56;;;;;;;5.10;2.50;;;;;;;17.70;40.83;100879.67;106521;1253;60456;-63
2023/05/29 05:49:24;;;;;;;7.00;2.30;;;;;;;17.77;40.38;100878.94;106553;1251;60537;-62
2023/05/29 05:51:52;;;;;;;5.70;2.10;;;;;;;17.83;40.49;100884.41;106383;1252;63758;-62
2023/05/29 05:54:19;;;;;;;5.50;2.20;;;;;;;17.89;40.62;100884.86;106450;1254;60369;-61
2023/05/29 05:56:47;;;;;;;4.80;1.90;;;;;;;17.95;40.47;100887.42;106524;1251;62486;-60
2023/05/29 05:59:14;;;;;;;4.60;1.80;;;;;;;18.01;39.96;100888.45;106299;1259;60450;-62
2023/05/29 06:01:42;;;;;;;5.20;2.20;;;;;;;18.05;39.57;100888.72;106342;1251;60338;-62
2023/05/29 06:04:10;;;;;;;5.10;2.30;;;;;;;18.09;40.11;100884.56;106356;1254;65110;-60
2023/05/29 06:06:38;;;;;;;7.00;2.00;;;;;;;18.15;40.08;100887.71;106413;1253;60106;-62
2023/05/29 06:09:05;;;;;;;6.60;2.40;;;;;;;18.20;40.45;100885.94;106390;1254;63678;-63
2023/05/29 06:11:33;;;;;;;7.40;2.20;;;;;;;18.26;40.33;100885.33;106328;1253;61969;-63
2023/05/29 06:14:00;;;;;;;5.90;2.10;;;;;;;18.31;39.69;100885.11;106510;1252;60520;-62
2023/05/29 06:16:28;;;;;;;5.60;2.10;;;;;;;18.36;39.49;100887.06;106425;1252;63665;-61
2023/05/29 06:18:57;;;;;;;5.80;1.80;;;;;;;18.41;39.37;100888.34;106444;1251;61357;-64
2023/05/29 06:21:25;;;;;;;6.00;2.30;;;;;;;18.45;39.96;100890.55;106376;1254;64708;-64
2023/05/29 06:23:54;;;;;;;4.90;2.30;;;;;;;18.51;40.01;100890.14;106459;1254;60539;-63
2023/05/29 06:26:23;;;;;;;13.00;2.70;;;;;;;18.57;39.55;100884.52;106399;1257;60291;-59
2023/05/29 06:28:51;;;;;;;5.80;2.30;;;;;;;18.59;38.69;100880.20;106529;1254;65467;-64
2023/05/29 06:31:19;;;;;;;7.10;2.20;;;;;;;18.59;38.94;100877.73;106522;1254;61309;-63
2023/05/29 06:33:48;;;;;;;4.50;2.10;;;;;;;18.63;39.24;100876.77;106405;1255;64288;-61
2023/05/29 06:36:15;;;;;;;6.70;2.20;;;;;;;18.69;39.75;100873.09;106320;1251;59476;-65
2023/05/29 06:38:48;;;;;;;4.80;1.80;;;;;;;18.77;39.75;100870.99;106473;1254;61033;-61
2023/05/29 06:41:16;;;;;;;6.40;2.20;;;;;;;18.84;39.66;100870.27;109162;1251;63622;-61
2023/05/29 06:43:43;;;;;;;5.20;2.30;;;;;;;18.91;39.71;100865.48;106476;1258;60391;-62
2023/05/29 06:46:11;;;;;;;5.30;2.00;;;;;;;18.93;39.69;100862.59;106372;1258;62486;-62
2023/05/29 06:48:38;;;;;;;5.00;1.90;;;;;;;18.97;39.82;100864.98;106571;1257;61076;-62
2023/05/29 06:54:22;;;;;;;6.50;2.00;;;;;;;18.94;39.05;100863.58;103134;1295;601805;-63
2023/05/29 06:56:50;;;;;;;5.80;2.20;;;;;;;19.16;39.21;100862.92;105316;1267;59184;-62
2023/05/29 06:59:37;;;;;;;7.60;2.20;;;;;;;19.25;38.84;100859.72;105406;1267;59360;-62
2023/05/29 07:02:05;;;;;;;11.50;2.50;;;;;;;19.29;38.43;100860.61;105205;1273;63277;-62
2023/05/29 07:04:33;;;;;;;5.30;2.10;;;;;;;19.39;38.14;100861.20;105320;1273;60130;-64
2023/05/29 07:07:01;;;;;;;6.10;2.20;;;;;;;19.40;37.86;100857.96;105187;1273;223702;-63
2023/05/29 07:09:28;;;;;;;5.90;2.00;;;;;;;19.42;38.20;100852.23;105450;1272;59122;-61
2023/05/29 07:11:56;;;;;;;4.50;1.80;;;;;;;19.39;37.85;100850.83;105564;1273;59190;-61
2023/05/29 07:14:23;;;;;;;11.90;2.30;;;;;;;19.36;37.62;100852.64;105409;1270;63276;-60
2023/05/29 07:16:51;;;;;;;4.50;2.00;;;;;;;19.48;36.85;100851.64;105436;1266;60090;-62
2023/05/29 07:19:19;;;;;;;7.10;1.70;;;;;;;19.53;36.14;100854.30;105562;1267;62478;-60
2023/05/29 07:21:48;;;;;;;5.00;2.00;;;;;;;19.55;36.12;100853.70;105766;1264;59676;-62
2023/05/29 07:24:17;;;;;;;5.40;2.40;;;;;;;19.58;36.64;100858.53;105100;1264;59757;-61
2023/05/29 07:26:45;;;;;;;5.00;1.90;;;;;;;19.64;37.66;100858.01;104316;1267;66715;-61
2023/05/29 07:29:13;;;;;;;5.60;2.00;;;;;;;19.73;37.91;100858.16;104370;1266;61376;-63
2023/05/29 07:31:41;;;;;;;5.40;2.00;;;;;;;19.80;37.70;100857.36;105784;1264;62591;-62
2023/05/29 07:34:08;;;;;;;6.00;1.90;;;;;;;19.89;37.82;100856.73;105791;1270;59602;-63
2023/05/29 07:36:36;;;;;;;6.50;1.80;;;;;;;20.00;37.39;100859.04;105773;1266;59790;-61
2023/05/29 07:39:07;;;;;;;5.50;1.80;;;;;;;20.05;36.80;100860.59;105588;1262;64625;-62
2023/05/29 07:41:35;;;;;;;4.40;1.80;;;;;;;20.05;37.06;100854.55;105874;1264;62301;-61
2023/05/29 07:44:02;;;;;;;8.20;2.50;;;;;;;20.11;37.05;100856.59;105707;1265;64141;-62
2023/05/29 07:46:30;;;;;;;5.80;1.80;;;;;;;20.19;36.64;100862.26;105725;1260;59791;-63
2023/05/29 07:49:15;;;;;;;10.80;1.70;;;;;;;20.36;36.46;100855.49;105774;1263;59835;-63
2023/05/29 07:51:43;;;;;;;4.20;1.80;;;;;;;20.46;36.22;100855.60;105873;1264;63523;-59
2023/05/29 07:54:10;;;;;;;4.00;1.70;;;;;;;20.55;35.51;100854.62;105752;1265;61328;-61
2023/05/29 07:56:40;;;;;;;4.60;1.40;;;;;;;20.65;34.62;100850.70;105740;1264;62861;-61
2023/05/29 07:59:08;;;;;;;5.60;1.70;;;;;;;20.72;34.29;100849.81;105744;1263;59674;-63
2023/05/29 08:01:37;;;;;;;5.20;1.70;;;;;;;20.78;34.10;100850.04;105733;1263;59541;-62
2023/05/29 08:04:05;;;;;;;9.00;1.60;;;;;;;20.81;33.88;100848.45;105643;1261;64740;-59
2023/05/29 08:06:34;;;;;;;5.90;1.20;;;;;;;20.86;32.80;100844.83;105770;1264;61610;-61
2023/05/29 08:09:03;;;;;;;7.30;1.60;;;;;;;20.88;31.55;100839.02;105712;1264;62493;-63
2023/05/29 08:11:30;;;;;;;4.00;1.50;;;;;;;20.89;31.87;100839.66;105770;1267;59765;-63
2023/05/29 08:13:58;;;;;;;4.60;1.60;;;;;;;20.94;32.33;100838.68;105856;1264;59717;-62
2023/05/29 08:16:27;;;;;;;7.20;1.40;;;;;;;21.03;31.96;100836.06;106137;1264;63168;-61
2023/05/29 08:18:55;;;;;;;4.60;1.60;;;;;;;21.10;31.64;100835.04;105168;1263;61573;-62
2023/05/29 08:21:25;;;;;;;4.20;1.10;;;;;;;21.16;31.45;100836.15;106036;1257;63775;-62
2023/05/29 08:23:52;;;;;;;8.00;1.70;;;;;;;21.23;31.37;100839.42;106069;1261;59724;-62
2023/05/29 08:26:20;;;;;;;4.90;1.20;;;;;;;21.27;30.79;100834.94;106082;1258;59711;-60
2023/05/29 08:28:48;;;;;;;4.00;1.20;;;;;;;21.30;31.40;100835.71;105998;1258;63883;-62
2023/05/29 08:31:15;;;;;;;4.10;1.10;;;;;;;21.34;32.16;100834.20;106175;1257;61361;-62
2023/05/29 08:33:43;;;;;;;4.50;1.30;;;;;;;21.42;32.40;100837.14;105995;1259;62437;-61
2023/05/29 08:36:11;;;;;;;4.70;1.40;;;;;;;21.48;32.59;100833.13;106006;1259;59686;-62
2023/05/29 08:38:38;;;;;;;5.10;1.20;;;;;;;21.56;32.67;100830.57;106114;1257;59662;-65
2023/05/29 08:41:06;;;;;;;5.80;1.60;;;;;;;21.64;32.08;100833.24;106140;1260;75487;-62
2023/05/29 08:43:34;;;;;;;4.00;1.50;;;;;;;21.73;31.25;100831.14;106108;1257;62395;-62
2023/05/29 08:46:02;;;;;;;4.00;1.40;;;;;;;21.81;31.73;100832.85;106011;1261;63772;-61
2023/05/29 08:48:30;;;;;;;4.20;1.50;;;;;;;21.88;31.81;100827.62;106465;1261;59764;-62
2023/05/29 08:50:58;;;;;;;5.10;1.40;;;;;;;21.92;30.83;100826.02;106023;1257;59720;-62
2023/05/29 08:53:26;;;;;;;7.40;1.50;;;;;;;21.94;30.78;100823.16;106035;1257;64146;-60
2023/05/29 08:55:55;;;;;;;8.40;1.60;;;;;;;22.00;31.46;100821.34;106139;1258;61390;-59
2023/05/29 08:58:23;;;;;;;5.00;1.40;;;;;;;22.06;30.42;100820.44;108699;1257;63700;-60
2023/05/29 09:00:51;;;;;;;3.50;1.20;;;;;;;22.04;30.25;100818.89;108029;1257;57653;-61
2023/05/29 09:03:20;;;;;;;3.70;1.30;;;;;;;22.02;30.33;100815.89;104766;1260;59301;-62
2023/05/29 09:05:48;;;;;;;4.40;1.40;;;;;;;22.05;30.62;100815.84;104767;1262;62920;-62
2023/05/29 09:08:16;;;;;;;4.00;1.30;;;;;;;22.12;30.72;100808.21;104842;1260;60163;-61
2023/05/29 09:10:45;;;;;;;5.80;1.30;;;;;;;22.20;30.42;100805.25;105718;1262;73235;-59
2023/05/29 09:13:13;;;;;;;4.20;1.30;;;;;;;22.27;29.48;100797.87;106143;1257;60067;-60
2023/05/29 09:15:45;;;;;;;4.60;1.50;;;;;;;22.26;29.09;100800.75;106109;1258;59736;-62
2023/05/29 09:18:13;;;;;;;4.90;1.60;;;;;;;22.25;29.10;100797.39;106021;1263;64650;-63
2023/05/29 09:20:40;;;;;;;4.50;1.60;;;;;;;22.27;29.69;100795.52;106136;1257;60144;-59
2023/05/29 09:23:08;;;;;;;4.30;1.20;;;;;;;22.37;29.98;100794.83;105479;1262;63726;-61
2023/05/29 09:25:41;;;;;;;4.20;1.50;;;;;;;22.40;28.98;100789.73;104767;1261;59700;-61
2023/05/29 09:28:08;;;;;;;3.10;1.10;;;;;;;22.37;28.66;100787.44;104644;1257;59587;-63
2023/05/29 09:30:40;;;;;;;5.90;1.70;;;;;;;22.36;28.77;100786.23;106119;1258;64128;-60
2023/05/29 09:33:08;;;;;;;5.70;1.20;;;;;;;22.39;29.22;100786.69;106189;1260;61322;-61
2023/05/29 09:35:37;;;;;;;4.10;1.80;;;;;;;22.44;30.27;100787.88;106000;1258;72742;-61
2023/05/29 09:38:06;;;;;;;5.70;1.60;;;;;;;22.52;29.85;100782.23;106066;1261;59831;-63
2023/05/29 09:40:34;;;;;;;5.30;1.50;;;;;;;22.63;29.05;100775.56;106029;1257;59682;-69
2023/05/29 09:43:17;;;;;;;4.20;1.20;;;;;;;22.69;27.44;100762.98;106003;1258;64597;-66
2023/05/29 09:45:46;;;;;;;5.00;1.50;;;;;;;22.71;27.91;100759.61;106154;1262;61920;-65
2023/05/29 09:48:14;;;;;;;6.20;1.30;;;;;;;22.81;28.93;100756.98;108359;1258;62612;-66
2023/05/29 09:50:44;;;;;;;5.70;1.50;;;;;;;22.92;28.83;100751.11;106029;1262;59766;-76
2023/05/29 09:53:24;;;;;;;4.40;1.10;;;;;;;23.01;28.66;100751.97;106076;1257;60168;-63
2023/05/29 09:55:52;;;;;;;6.00;1.80;;;;;;;23.10;29.01;100750.57;106024;1264;64229;-65
2023/05/29 09:58:22;;;;;;;3.50;1.40;;;;;;;23.19;28.14;100748.23;105997;1257;61390;-65
2023/05/29 10:00:51;;;;;;;5.50;1.60;;;;;;;23.24;28.33;100747.84;108762;1257;63761;-70
2023/05/29 10:03:21;;;;;;;4.20;1.20;;;;;;;23.30;29.23;100743.80;106042;1261;61123;-70
2023/05/29 10:05:51;;;;;;;3.60;1.40;;;;;;;23.38;29.53;100744.21;106185;1260;60362;-67
2023/05/29 10:08:19;;;;;;;6.00;1.60;;;;;;;23.49;29.87;100744.40;106052;1262;64144;-63
2023/05/29 10:11:15;;;;;;;3.40;1.40;;;;;;;23.59;29.35;100741.48;105924;1257;60264;-60
2023/05/29 10:13:48;;;;;;;2.80;1.30;;;;;;;23.59;28.22;100742.23;106147;1258;62546;-63
2023/05/29 10:16:16;;;;;;;7.70;1.50;;;;;;;23.55;28.46;100742.98;105978;1256;59682;-60
2023/05/29 10:18:49;;;;;;;4.90;1.30;;;;;;;23.59;28.71;100743.85;105854;1257;60002;-62
2023/05/29 10:21:16;;;;;;;4.50;1.50;;;;;;;23.63;28.65;100746.02;105822;1260;64156;-65
2023/05/29 10:23:47;;;;;;;5.10;1.60;;;;;;;23.67;28.58;100744.80;105816;1257;61333;-61
2023/05/29 10:26:15;;;;;;;5.10;1.30;;;;;;;23.77;28.79;100740.98;106044;1258;71651;-63
2023/05/29 10:28:46;;;;;;;6.40;1.60;;;;;;;23.87;28.23;100740.40;108418;1257;58509;-64
2023/05/29 10:31:19;;;;;;;5.10;1.50;;;;;;;23.93;27.46;100736.73;105844;1257;59572;-62
2023/05/29 10:34:22;;;;;;;3.80;1.10;;;;;;;23.94;26.73;100731.58;106043;1262;64191;-61
2023/05/29 10:36:56;;;;;;;3.60;1.30;;;;;;;24.00;27.26;100733.16;105854;1262;60347;-62
2023/05/29 10:39:23;;;;;;;4.00;1.40;;;;;;;24.01;27.30;100735.48;106623;1260;62571;-61
2023/05/29 10:41:54;;;;;;;3.30;1.10;;;;;;;24.01;27.71;100736.59;105993;1259;59230;-62
2023/05/29 10:44:30;;;;;;;3.20;1.10;;;;;;;24.07;28.45;100738.77;106049;1263;59564;-62
2023/05/29 10:47:03;;;;;;;4.50;1.10;;;;;;;24.16;28.10;100735.17;106082;1258;62955;-63
2023/05/29 10:49:31;;;;;;;4.40;1.60;;;;;;;24.22;27.41;100736.43;106103;1257;60167;-61
2023/05/29 10:51:59;;;;;;;5.50;1.70;;;;;;;24.26;27.07;100733.71;106186;1257;63774;-61
2023/05/29 10:54:27;;;;;;;7.60;1.40;;;;;;;24.33;26.85;100733.14;106043;1260;59667;-63
2023/05/29 10:56:57;;;;;;;6.80;1.70;;;;;;;24.38;27.57;100726.98;106082;1259;59702;-62
2023/05/29 10:59:27;;;;;;;3.80;1.30;;;;;;;24.45;27.27;100730.42;106211;1261;64563;-62
2023/05/29 11:01:55;;;;;;;4.40;1.80;;;;;;;24.44;26.61;100724.63;106028;1263;60182;-61
2023/05/29 11:04:26;;;;;;;3.80;1.40;;;;;;;24.43;26.95;100725.16;106241;1257;65712;-63
2023/05/29 11:06:55;;;;;;;4.70;1.20;;;;;;;24.46;27.65;100722.72;106226;1256;60633;-63
2023/05/29 11:09:34;;;;;;;3.40;1.30;;;;;;;24.55;28.48;100723.48;106233;1257;61757;-60
2023/05/29 11:12:35;;;;;;;3.50;1.30;;;;;;;24.65;26.75;100722.09;106226;1258;68133;-62
2023/05/29 11:15:13;;;;;;;4.20;1.50;;;;;;;24.66;26.39;100720.27;106202;1258;60099;-62
2023/05/29 11:17:45;;;;;;;5.80;1.40;;;;;;;24.65;25.76;100716.71;106078;1257;64413;-62
2023/05/29 11:20:17;;;;;;;3.90;1.30;;;;;;;24.62;25.31;100714.27;106237;1260;60434;-61
2023/05/29 11:23:07;;;;;;;3.70;1.20;;;;;;;24.57;25.30;100713.23;105659;1259;60514;-62
2023/05/29 11:25:36;;;;;;;5.60;1.90;;;;;;;24.48;26.38;100714.04;106207;1257;67951;-63
2023/05/29 11:28:08;;;;;;;3.20;1.10;;;;;;;24.47;26.31;100711.75;106200;1258;60909;-62